sensor_id;sensor_type;location;lat;lon;timestamp;P1;durP1;ratioP1;P2;durP2;ratioP2
45402;SDS011;47427;51.976;5.326;2023-04-08T00:01:02;61.75;;;45.40;;
45402;SDS011;47427;51.976;5.326;2023-04-08T00:04:25;59.13;;;46.13;;
45402;SDS011;47427;51.976;5.326;2023-04-08T00:07:47;52.00;;;44.10;;
45402;SDS011;47427;51.976;5.326;2023-04-08T00:11:10;55.42;;;44.53;;
45402;SDS011;47427;51.976;5.326;2023-04-08T00:14:32;54.22;;;44.15;;
45402;SDS011;47427;51.976;5.326;2023-04-08T00:17:54;46.88;;;37.80;;
45402;SDS011;47427;51.976;5.326;2023-04-08T00:21:19;51.28;;;41.20;;
45402;SDS011;47427;51.976;5.326;2023-04-08T00:24:40;53.47;;;45.38;;
45402;SDS011;47427;51.976;5.326;2023-04-08T00:28:03;55.35;;;45.55;;
45402;SDS011;47427;51.976;5.326;2023-04-08T00:31:26;50.30;;;42.35;;
45402;SDS011;47427;51.976;5.326;2023-04-08T00:34:48;51.88;;;40.88;;
45402;SDS011;47427;51.976;5.326;2023-04-08T00:38:11;46.88;;;39.85;;
45402;SDS011;47427;51.976;5.326;2023-04-08T00:41:34;58.42;;;43.30;;
45402;SDS011;47427;51.976;5.326;2023-04-08T00:44:56;54.95;;;42.70;;
45402;SDS011;47427;51.976;5.326;2023-04-08T00:48:18;54.13;;;40.92;;
45402;SDS011;47427;51.976;5.326;2023-04-08T00:51:40;58.97;;;43.05;;
45402;SDS011;47427;51.976;5.326;2023-04-08T00:55:03;94.13;;;40.42;;
45402;SDS011;47427;51.976;5.326;2023-04-08T00:58:27;114.15;;;39.88;;
45402;SDS011;47427;51.976;5.326;2023-04-08T01:01:50;163.45;;;45.53;;
45402;SDS011;47427;51.976;5.326;2023-04-08T01:09:24;349.52;;;59.45;;
45402;SDS011;47427;51.976;5.326;2023-04-08T01:12:53;161.10;;;42.97;;
45402;SDS011;47427;51.976;5.326;2023-04-08T01:16:19;166.98;;;43.67;;
45402;SDS011;47427;51.976;5.326;2023-04-08T01:19:41;161.05;;;44.00;;
45402;SDS011;47427;51.976;5.326;2023-04-08T01:23:17;155.25;;;43.22;;
45402;SDS011;47427;51.976;5.326;2023-04-08T01:26:43;149.65;;;43.13;;
45402;SDS011;47427;51.976;5.326;2023-04-08T01:30:07;346.98;;;50.75;;
45402;SDS011;47427;51.976;5.326;2023-04-08T01:33:31;177.93;;;38.67;;
45402;SDS011;47427;51.976;5.326;2023-04-08T01:36:54;386.48;;;51.50;;
45402;SDS011;47427;51.976;5.326;2023-04-08T01:40:18;356.38;;;51.15;;
45402;SDS011;47427;51.976;5.326;2023-04-08T01:43:41;404.70;;;56.95;;
45402;SDS011;47427;51.976;5.326;2023-04-08T01:47:04;145.48;;;41.45;;
45402;SDS011;47427;51.976;5.326;2023-04-08T01:50:27;237.30;;;42.63;;
45402;SDS011;47427;51.976;5.326;2023-04-08T01:53:50;528.78;;;64.07;;
45402;SDS011;47427;51.976;5.326;2023-04-08T01:57:13;253.77;;;44.75;;
45402;SDS011;47427;51.976;5.326;2023-04-08T02:00:45;363.83;;;49.67;;
45402;SDS011;47427;51.976;5.326;2023-04-08T02:04:08;340.00;;;48.75;;
45402;SDS011;47427;51.976;5.326;2023-04-08T02:07:29;255.20;;;42.40;;
45402;SDS011;47427;51.976;5.326;2023-04-08T02:10:52;264.95;;;48.42;;
45402;SDS011;47427;51.976;5.326;2023-04-08T02:14:14;353.25;;;51.42;;
45402;SDS011;47427;51.976;5.326;2023-04-08T02:17:47;158.98;;;41.08;;
45402;SDS011;47427;51.976;5.326;2023-04-08T02:21:20;167.27;;;40.00;;
45402;SDS011;47427;51.976;5.326;2023-04-08T02:24:48;192.65;;;40.28;;
45402;SDS011;47427;51.976;5.326;2023-04-08T02:28:30;165.50;;;40.10;;
45402;SDS011;47427;51.976;5.326;2023-04-08T02:31:58;121.38;;;38.53;;
45402;SDS011;47427;51.976;5.326;2023-04-08T02:35:25;162.20;;;41.55;;
45402;SDS011;47427;51.976;5.326;2023-04-08T02:38:48;234.10;;;44.08;;
45402;SDS011;47427;51.976;5.326;2023-04-08T02:42:11;93.10;;;40.53;;
45402;SDS011;47427;51.976;5.326;2023-04-08T02:45:36;168.13;;;41.15;;
45402;SDS011;47427;51.976;5.326;2023-04-08T02:49:02;100.45;;;38.55;;
45402;SDS011;47427;51.976;5.326;2023-04-08T02:52:25;104.90;;;38.55;;
45402;SDS011;47427;51.976;5.326;2023-04-08T02:55:46;152.38;;;40.15;;
45402;SDS011;47427;51.976;5.326;2023-04-08T02:59:09;168.57;;;41.85;;
45402;SDS011;47427;51.976;5.326;2023-04-08T03:02:32;117.57;;;37.83;;
45402;SDS011;47427;51.976;5.326;2023-04-08T03:05:56;109.10;;;37.58;;
45402;SDS011;47427;51.976;5.326;2023-04-08T03:09:19;178.10;;;42.47;;
45402;SDS011;47427;51.976;5.326;2023-04-08T03:12:41;302.58;;;55.05;;
45402;SDS011;47427;51.976;5.326;2023-04-08T03:16:02;103.47;;;35.30;;
45402;SDS011;47427;51.976;5.326;2023-04-08T03:19:25;141.52;;;37.45;;
45402;SDS011;47427;51.976;5.326;2023-04-08T03:22:47;276.75;;;42.83;;
45402;SDS011;47427;51.976;5.326;2023-04-08T03:26:10;158.52;;;38.15;;
45402;SDS011;47427;51.976;5.326;2023-04-08T03:29:33;104.68;;;33.90;;
45402;SDS011;47427;51.976;5.326;2023-04-08T03:32:54;90.57;;;33.72;;
45402;SDS011;47427;51.976;5.326;2023-04-08T03:36:36;109.25;;;32.90;;
45402;SDS011;47427;51.976;5.326;2023-04-08T03:39:58;118.15;;;34.45;;
45402;SDS011;47427;51.976;5.326;2023-04-08T03:43:40;334.50;;;49.30;;
45402;SDS011;47427;51.976;5.326;2023-04-08T03:47:01;215.40;;;37.47;;
45402;SDS011;47427;51.976;5.326;2023-04-08T03:50:23;179.82;;;36.35;;
45402;SDS011;47427;51.976;5.326;2023-04-08T03:53:45;181.80;;;35.67;;
45402;SDS011;47427;51.976;5.326;2023-04-08T03:57:08;154.80;;;34.22;;
45402;SDS011;47427;51.976;5.326;2023-04-08T04:00:33;167.50;;;32.97;;
45402;SDS011;47427;51.976;5.326;2023-04-08T04:03:57;181.85;;;35.92;;
45402;SDS011;47427;51.976;5.326;2023-04-08T04:07:18;145.32;;;34.25;;
45402;SDS011;47427;51.976;5.326;2023-04-08T04:10:41;192.18;;;35.28;;
45402;SDS011;47427;51.976;5.326;2023-04-08T04:14:02;118.38;;;32.03;;
45402;SDS011;47427;51.976;5.326;2023-04-08T04:17:25;165.77;;;32.45;;
45402;SDS011;47427;51.976;5.326;2023-04-08T04:20:48;159.68;;;34.22;;
45402;SDS011;47427;51.976;5.326;2023-04-08T04:24:09;158.00;;;35.20;;
45402;SDS011;47427;51.976;5.326;2023-04-08T04:27:32;212.57;;;36.88;;
45402;SDS011;47427;51.976;5.326;2023-04-08T04:30:54;227.10;;;38.58;;
45402;SDS011;47427;51.976;5.326;2023-04-08T04:34:16;175.30;;;31.25;;
45402;SDS011;47427;51.976;5.326;2023-04-08T04:37:38;122.57;;;32.25;;
45402;SDS011;47427;51.976;5.326;2023-04-08T04:41:01;181.18;;;37.60;;
45402;SDS011;47427;51.976;5.326;2023-04-08T04:44:24;134.30;;;33.47;;
45402;SDS011;47427;51.976;5.326;2023-04-08T04:47:46;277.67;;;43.13;;
45402;SDS011;47427;51.976;5.326;2023-04-08T04:51:08;226.95;;;39.80;;
45402;SDS011;47427;51.976;5.326;2023-04-08T04:54:31;94.97;;;29.92;;
45402;SDS011;47427;51.976;5.326;2023-04-08T04:57:53;179.60;;;40.03;;
45402;SDS011;47427;51.976;5.326;2023-04-08T05:01:15;140.57;;;39.90;;
45402;SDS011;47427;51.976;5.326;2023-04-08T05:04:38;177.95;;;40.78;;
45402;SDS011;47427;51.976;5.326;2023-04-08T05:07:59;159.57;;;37.72;;
45402;SDS011;47427;51.976;5.326;2023-04-08T05:11:22;239.88;;;41.28;;
45402;SDS011;47427;51.976;5.326;2023-04-08T05:14:45;184.48;;;36.28;;
45402;SDS011;47427;51.976;5.326;2023-04-08T05:18:07;156.32;;;37.97;;
45402;SDS011;47427;51.976;5.326;2023-04-08T05:21:29;123.95;;;34.90;;
45402;SDS011;47427;51.976;5.326;2023-04-08T05:24:53;142.88;;;38.17;;
45402;SDS011;47427;51.976;5.326;2023-04-08T05:28:15;113.00;;;34.55;;
45402;SDS011;47427;51.976;5.326;2023-04-08T05:31:37;90.63;;;30.38;;
45402;SDS011;47427;51.976;5.326;2023-04-08T05:35:03;152.40;;;35.88;;
45402;SDS011;47427;51.976;5.326;2023-04-08T05:38:25;91.55;;;35.72;;
45402;SDS011;47427;51.976;5.326;2023-04-08T05:41:47;93.13;;;35.40;;
45402;SDS011;47427;51.976;5.326;2023-04-08T05:45:09;123.38;;;39.03;;
45402;SDS011;47427;51.976;5.326;2023-04-08T05:48:32;176.00;;;39.55;;
45402;SDS011;47427;51.976;5.326;2023-04-08T05:51:55;175.23;;;38.45;;
45402;SDS011;47427;51.976;5.326;2023-04-08T05:55:16;90.25;;;33.50;;
45402;SDS011;47427;51.976;5.326;2023-04-08T05:58:39;91.90;;;35.42;;
45402;SDS011;47427;51.976;5.326;2023-04-08T06:06:00;85.32;;;34.55;;
45402;SDS011;47427;51.976;5.326;2023-04-08T06:09:23;64.90;;;34.80;;
45402;SDS011;47427;51.976;5.326;2023-04-08T06:12:45;57.22;;;35.70;;
45402;SDS011;47427;51.976;5.326;2023-04-08T06:16:11;61.80;;;36.80;;
45402;SDS011;47427;51.976;5.326;2023-04-08T06:19:35;64.18;;;35.67;;
45402;SDS011;47427;51.976;5.326;2023-04-08T06:22:56;46.25;;;37.40;;
45402;SDS011;47427;51.976;5.326;2023-04-08T06:26:19;58.85;;;36.80;;
45402;SDS011;47427;51.976;5.326;2023-04-08T06:29:40;54.88;;;38.08;;
45402;SDS011;47427;51.976;5.326;2023-04-08T06:33:03;44.53;;;37.28;;
45402;SDS011;47427;51.976;5.326;2023-04-08T06:36:26;50.10;;;37.03;;
45402;SDS011;47427;51.976;5.326;2023-04-08T06:39:48;41.10;;;36.92;;
45402;SDS011;47427;51.976;5.326;2023-04-08T06:43:10;42.85;;;38.42;;
45402;SDS011;47427;51.976;5.326;2023-04-08T06:46:34;43.20;;;38.05;;
45402;SDS011;47427;51.976;5.326;2023-04-08T06:49:55;40.47;;;36.80;;
45402;SDS011;47427;51.976;5.326;2023-04-08T06:53:18;40.60;;;36.75;;
45402;SDS011;47427;51.976;5.326;2023-04-08T06:56:40;41.65;;;37.80;;
45402;SDS011;47427;51.976;5.326;2023-04-08T07:00:02;40.78;;;37.20;;
45402;SDS011;47427;51.976;5.326;2023-04-08T07:03:26;39.55;;;36.10;;
45402;SDS011;47427;51.976;5.326;2023-04-08T07:06:47;39.88;;;36.42;;
45402;SDS011;47427;51.976;5.326;2023-04-08T07:10:11;40.33;;;36.88;;
45402;SDS011;47427;51.976;5.326;2023-04-08T07:13:34;40.22;;;36.92;;
45402;SDS011;47427;51.976;5.326;2023-04-08T07:16:57;38.28;;;35.25;;
45402;SDS011;47427;51.976;5.326;2023-04-08T07:20:38;39.42;;;36.03;;
45402;SDS011;47427;51.976;5.326;2023-04-08T07:24:02;38.47;;;35.40;;
45402;SDS011;47427;51.976;5.326;2023-04-08T07:27:25;39.33;;;36.13;;
45402;SDS011;47427;51.976;5.326;2023-04-08T07:30:47;38.03;;;35.00;;
45402;SDS011;47427;51.976;5.326;2023-04-08T07:34:09;39.55;;;36.45;;
45402;SDS011;47427;51.976;5.326;2023-04-08T07:37:32;40.17;;;36.88;;
45402;SDS011;47427;51.976;5.326;2023-04-08T07:40:55;39.22;;;35.83;;
45402;SDS011;47427;51.976;5.326;2023-04-08T07:44:17;37.85;;;34.75;;
45402;SDS011;47427;51.976;5.326;2023-04-08T07:47:40;36.88;;;34.13;;
45402;SDS011;47427;51.976;5.326;2023-04-08T07:51:03;35.92;;;33.33;;
45402;SDS011;47427;51.976;5.326;2023-04-08T07:54:29;36.38;;;33.67;;
45402;SDS011;47427;51.976;5.326;2023-04-08T07:57:55;34.75;;;32.05;;
45402;SDS011;47427;51.976;5.326;2023-04-08T08:01:18;33.83;;;31.42;;
45402;SDS011;47427;51.976;5.326;2023-04-08T08:04:43;33.55;;;31.00;;
45402;SDS011;47427;51.976;5.326;2023-04-08T08:08:06;34.05;;;31.52;;
45402;SDS011;47427;51.976;5.326;2023-04-08T08:11:27;33.40;;;31.05;;
45402;SDS011;47427;51.976;5.326;2023-04-08T08:14:50;32.25;;;29.77;;
45402;SDS011;47427;51.976;5.326;2023-04-08T08:18:15;32.35;;;30.10;;
45402;SDS011;47427;51.976;5.326;2023-04-08T08:21:37;33.83;;;31.45;;
45402;SDS011;47427;51.976;5.326;2023-04-08T08:25:00;33.85;;;31.50;;
45402;SDS011;47427;51.976;5.326;2023-04-08T08:28:22;34.38;;;31.95;;
45402;SDS011;47427;51.976;5.326;2023-04-08T08:31:44;34.45;;;31.80;;
45402;SDS011;47427;51.976;5.326;2023-04-08T08:35:09;32.45;;;30.25;;
45402;SDS011;47427;51.976;5.326;2023-04-08T08:38:30;31.50;;;29.00;;
45402;SDS011;47427;51.976;5.326;2023-04-08T08:41:53;33.63;;;31.33;;
45402;SDS011;47427;51.976;5.326;2023-04-08T08:45:20;31.65;;;29.27;;
45402;SDS011;47427;51.976;5.326;2023-04-08T08:48:43;29.65;;;27.67;;
45402;SDS011;47427;51.976;5.326;2023-04-08T09:48:34;26.90;;;25.20;;
45402;SDS011;47427;51.976;5.326;2023-04-08T09:52:07;28.67;;;26.70;;
45402;SDS011;47427;51.976;5.326;2023-04-08T09:55:54;28.95;;;26.67;;
45402;SDS011;47427;51.976;5.326;2023-04-08T09:59:18;27.42;;;25.17;;
45402;SDS011;47427;51.976;5.326;2023-04-08T10:06:29;27.63;;;25.73;;
45402;SDS011;47427;51.976;5.326;2023-04-08T10:09:52;27.40;;;25.55;;
45402;SDS011;47427;51.976;5.326;2023-04-08T10:13:14;26.73;;;25.02;;
45402;SDS011;47427;51.976;5.326;2023-04-08T10:16:37;26.05;;;24.33;;
45402;SDS011;47427;51.976;5.326;2023-04-08T10:20:00;26.30;;;24.60;;
45402;SDS011;47427;51.976;5.326;2023-04-08T10:23:21;26.50;;;24.70;;
45402;SDS011;47427;51.976;5.326;2023-04-08T10:27:37;25.98;;;24.35;;
45402;SDS011;47427;51.976;5.326;2023-04-08T10:31:02;25.93;;;24.10;;
45402;SDS011;47427;51.976;5.326;2023-04-08T10:34:26;25.90;;;24.25;;
45402;SDS011;47427;51.976;5.326;2023-04-08T10:37:49;24.52;;;23.02;;
45402;SDS011;47427;51.976;5.326;2023-04-08T10:41:11;25.85;;;24.05;;
45402;SDS011;47427;51.976;5.326;2023-04-08T10:44:33;24.55;;;22.85;;
45402;SDS011;47427;51.976;5.326;2023-04-08T10:47:55;25.60;;;23.63;;
45402;SDS011;47427;51.976;5.326;2023-04-08T10:51:17;25.77;;;23.98;;
45402;SDS011;47427;51.976;5.326;2023-04-08T10:54:45;25.47;;;23.73;;
45402;SDS011;47427;51.976;5.326;2023-04-08T10:58:09;25.98;;;24.27;;
45402;SDS011;47427;51.976;5.326;2023-04-08T11:01:37;26.55;;;24.75;;
45402;SDS011;47427;51.976;5.326;2023-04-08T11:05:01;26.48;;;24.67;;
45402;SDS011;47427;51.976;5.326;2023-04-08T11:08:27;26.13;;;24.27;;
45402;SDS011;47427;51.976;5.326;2023-04-08T11:11:51;25.25;;;23.55;;
45402;SDS011;47427;51.976;5.326;2023-04-08T11:15:14;25.93;;;24.10;;
45402;SDS011;47427;51.976;5.326;2023-04-08T11:18:37;25.17;;;23.58;;
45402;SDS011;47427;51.976;5.326;2023-04-08T11:22:01;27.05;;;25.15;;
45402;SDS011;47427;51.976;5.326;2023-04-08T11:25:26;26.33;;;24.30;;
45402;SDS011;47427;51.976;5.326;2023-04-08T11:28:48;26.15;;;24.23;;
45402;SDS011;47427;51.976;5.326;2023-04-08T11:32:12;27.27;;;25.25;;
45402;SDS011;47427;51.976;5.326;2023-04-08T11:35:38;26.13;;;24.30;;
45402;SDS011;47427;51.976;5.326;2023-04-08T11:39:05;25.63;;;24.00;;
45402;SDS011;47427;51.976;5.326;2023-04-08T11:42:31;25.08;;;23.38;;
45402;SDS011;47427;51.976;5.326;2023-04-08T11:45:52;25.08;;;23.48;;
45402;SDS011;47427;51.976;5.326;2023-04-08T11:49:14;26.08;;;24.27;;
45402;SDS011;47427;51.976;5.326;2023-04-08T11:52:49;24.17;;;22.67;;
45402;SDS011;47427;51.976;5.326;2023-04-08T11:56:16;25.02;;;23.27;;
45402;SDS011;47427;51.976;5.326;2023-04-08T11:59:44;23.83;;;22.35;;
45402;SDS011;47427;51.976;5.326;2023-04-08T12:03:06;25.40;;;23.60;;
45402;SDS011;47427;51.976;5.326;2023-04-08T12:06:29;24.85;;;23.08;;
45402;SDS011;47427;51.976;5.326;2023-04-08T12:09:52;24.23;;;22.83;;
45402;SDS011;47427;51.976;5.326;2023-04-08T12:13:14;25.30;;;23.48;;
45402;SDS011;47427;51.976;5.326;2023-04-08T12:16:37;25.95;;;24.08;;
45402;SDS011;47427;51.976;5.326;2023-04-08T12:19:58;26.88;;;24.88;;
45402;SDS011;47427;51.976;5.326;2023-04-08T12:23:22;26.38;;;24.50;;
45402;SDS011;47427;51.976;5.326;2023-04-08T12:26:44;27.48;;;25.58;;
45402;SDS011;47427;51.976;5.326;2023-04-08T12:30:06;28.52;;;26.10;;
45402;SDS011;47427;51.976;5.326;2023-04-08T12:33:30;28.27;;;25.90;;
45402;SDS011;47427;51.976;5.326;2023-04-08T12:36:53;26.27;;;24.25;;
45402;SDS011;47427;51.976;5.326;2023-04-08T12:40:15;26.90;;;24.80;;
45402;SDS011;47427;51.976;5.326;2023-04-08T12:43:40;28.70;;;26.40;;
45402;SDS011;47427;51.976;5.326;2023-04-08T12:47:01;28.77;;;26.33;;
45402;SDS011;47427;51.976;5.326;2023-04-08T12:50:24;28.17;;;25.58;;
45402;SDS011;47427;51.976;5.326;2023-04-08T12:53:47;27.73;;;25.35;;
45402;SDS011;47427;51.976;5.326;2023-04-08T12:57:08;27.30;;;24.85;;
45402;SDS011;47427;51.976;5.326;2023-04-08T13:00:31;26.92;;;24.67;;
45402;SDS011;47427;51.976;5.326;2023-04-08T13:03:54;27.60;;;25.20;;
45402;SDS011;47427;51.976;5.326;2023-04-08T13:07:16;27.05;;;24.77;;
45402;SDS011;47427;51.976;5.326;2023-04-08T13:10:38;27.33;;;25.08;;
45402;SDS011;47427;51.976;5.326;2023-04-08T13:14:01;27.73;;;25.25;;
45402;SDS011;47427;51.976;5.326;2023-04-08T13:17:24;28.05;;;25.75;;
45402;SDS011;47427;51.976;5.326;2023-04-08T13:20:47;27.05;;;24.55;;
45402;SDS011;47427;51.976;5.326;2023-04-08T13:24:08;29.20;;;26.67;;
45402;SDS011;47427;51.976;5.326;2023-04-08T13:27:31;27.00;;;24.70;;
45402;SDS011;47427;51.976;5.326;2023-04-08T13:30:54;27.88;;;25.35;;
45402;SDS011;47427;51.976;5.326;2023-04-08T13:34:16;28.95;;;26.23;;
45402;SDS011;47427;51.976;5.326;2023-04-08T13:37:38;28.75;;;26.13;;
45402;SDS011;47427;51.976;5.326;2023-04-08T13:41:00;26.75;;;24.65;;
45402;SDS011;47427;51.976;5.326;2023-04-08T13:44:23;27.42;;;25.23;;
45402;SDS011;47427;51.976;5.326;2023-04-08T13:47:46;24.65;;;22.85;;
45402;SDS011;47427;51.976;5.326;2023-04-08T13:51:08;23.63;;;21.92;;
45402;SDS011;47427;51.976;5.326;2023-04-08T13:54:31;24.95;;;22.98;;
45402;SDS011;47427;51.976;5.326;2023-04-08T13:58:12;24.67;;;22.88;;
45402;SDS011;47427;51.976;5.326;2023-04-08T14:01:35;25.80;;;24.10;;
45402;SDS011;47427;51.976;5.326;2023-04-08T14:04:58;23.60;;;21.70;;
45402;SDS011;47427;51.976;5.326;2023-04-08T14:08:19;23.73;;;21.98;;
45402;SDS011;47427;51.976;5.326;2023-04-08T14:11:46;21.38;;;19.85;;
45402;SDS011;47427;51.976;5.326;2023-04-08T14:15:08;21.48;;;19.88;;
45402;SDS011;47427;51.976;5.326;2023-04-08T14:18:30;21.98;;;20.55;;
45402;SDS011;47427;51.976;5.326;2023-04-08T14:21:53;21.90;;;20.48;;
45402;SDS011;47427;51.976;5.326;2023-04-08T14:25:14;22.23;;;20.73;;
45402;SDS011;47427;51.976;5.326;2023-04-08T14:28:37;21.83;;;20.33;;
45402;SDS011;47427;51.976;5.326;2023-04-08T14:32:00;20.33;;;18.95;;
45402;SDS011;47427;51.976;5.326;2023-04-08T14:35:21;22.60;;;20.70;;
45402;SDS011;47427;51.976;5.326;2023-04-08T14:38:44;21.73;;;20.33;;
45402;SDS011;47427;51.976;5.326;2023-04-08T14:42:07;21.92;;;20.42;;
45402;SDS011;47427;51.976;5.326;2023-04-08T14:45:28;21.45;;;19.55;;
45402;SDS011;47427;51.976;5.326;2023-04-08T14:48:52;21.38;;;19.85;;
45402;SDS011;47427;51.976;5.326;2023-04-08T14:52:13;22.85;;;21.00;;
45402;SDS011;47427;51.976;5.326;2023-04-08T14:55:36;22.17;;;20.77;;
45402;SDS011;47427;51.976;5.326;2023-04-08T14:58:59;23.25;;;21.83;;
45402;SDS011;47427;51.976;5.326;2023-04-08T15:02:21;24.33;;;22.63;;
45402;SDS011;47427;51.976;5.326;2023-04-08T15:05:44;22.60;;;21.30;;
45402;SDS011;47427;51.976;5.326;2023-04-08T15:09:06;23.70;;;22.20;;
45402;SDS011;47427;51.976;5.326;2023-04-08T15:12:28;23.75;;;22.17;;
45402;SDS011;47427;51.976;5.326;2023-04-08T15:15:51;23.05;;;21.65;;
45402;SDS011;47427;51.976;5.326;2023-04-08T15:19:12;23.35;;;21.77;;
45402;SDS011;47427;51.976;5.326;2023-04-08T15:22:35;23.58;;;22.08;;
45402;SDS011;47427;51.976;5.326;2023-04-08T15:25:58;22.27;;;20.75;;
45402;SDS011;47427;51.976;5.326;2023-04-08T15:29:20;22.25;;;20.88;;
45402;SDS011;47427;51.976;5.326;2023-04-08T15:32:44;22.40;;;20.90;;
45402;SDS011;47427;51.976;5.326;2023-04-08T15:36:07;21.63;;;20.13;;
45402;SDS011;47427;51.976;5.326;2023-04-08T15:39:29;23.48;;;21.85;;
45402;SDS011;47427;51.976;5.326;2023-04-08T15:42:52;23.83;;;22.05;;
45402;SDS011;47427;51.976;5.326;2023-04-08T15:46:17;23.85;;;22.23;;
45402;SDS011;47427;51.976;5.326;2023-04-08T15:49:40;21.30;;;19.85;;
45402;SDS011;47427;51.976;5.326;2023-04-08T15:53:03;22.85;;;21.25;;
45402;SDS011;47427;51.976;5.326;2023-04-08T15:56:25;21.50;;;20.10;;
45402;SDS011;47427;51.976;5.326;2023-04-08T15:59:50;23.25;;;21.80;;
45402;SDS011;47427;51.976;5.326;2023-04-08T16:03:14;24.02;;;22.13;;
45402;SDS011;47427;51.976;5.326;2023-04-08T16:06:36;24.13;;;22.52;;
45402;SDS011;47427;51.976;5.326;2023-04-08T16:09:59;22.92;;;21.38;;
45402;SDS011;47427;51.976;5.326;2023-04-08T16:13:21;24.52;;;22.63;;
45402;SDS011;47427;51.976;5.326;2023-04-08T16:16:44;22.70;;;21.23;;
45402;SDS011;47427;51.976;5.326;2023-04-08T16:20:08;23.88;;;22.17;;
45402;SDS011;47427;51.976;5.326;2023-04-08T16:23:30;23.73;;;21.65;;
45402;SDS011;47427;51.976;5.326;2023-04-08T16:26:53;24.13;;;22.52;;
45402;SDS011;47427;51.976;5.326;2023-04-08T16:30:15;25.63;;;23.83;;
45402;SDS011;47427;51.976;5.326;2023-04-08T16:33:38;25.20;;;23.30;;
45402;SDS011;47427;51.976;5.326;2023-04-08T16:37:01;25.83;;;23.95;;
45402;SDS011;47427;51.976;5.326;2023-04-08T16:40:23;25.58;;;23.60;;
45402;SDS011;47427;51.976;5.326;2023-04-08T16:43:45;25.65;;;23.85;;
45402;SDS011;47427;51.976;5.326;2023-04-08T16:47:08;24.70;;;22.90;;
45402;SDS011;47427;51.976;5.326;2023-04-08T16:50:30;24.73;;;23.02;;
45402;SDS011;47427;51.976;5.326;2023-04-08T16:53:53;25.73;;;23.65;;
45402;SDS011;47427;51.976;5.326;2023-04-08T16:57:14;25.52;;;23.73;;
45402;SDS011;47427;51.976;5.326;2023-04-08T17:00:37;24.80;;;23.10;;
45402;SDS011;47427;51.976;5.326;2023-04-08T17:04:00;25.23;;;23.25;;
45402;SDS011;47427;51.976;5.326;2023-04-08T17:07:22;24.52;;;22.83;;
45402;SDS011;47427;51.976;5.326;2023-04-08T17:10:44;26.50;;;24.52;;
45402;SDS011;47427;51.976;5.326;2023-04-08T17:14:09;25.67;;;23.73;;
45402;SDS011;47427;51.976;5.326;2023-04-08T17:17:31;25.00;;;23.30;;
45402;SDS011;47427;51.976;5.326;2023-04-08T17:20:52;26.20;;;24.27;;
45402;SDS011;47427;51.976;5.326;2023-04-08T17:24:15;26.38;;;24.17;;
45402;SDS011;47427;51.976;5.326;2023-04-08T17:27:36;25.42;;;23.60;;
45402;SDS011;47427;51.976;5.326;2023-04-08T17:30:58;24.70;;;22.90;;
45402;SDS011;47427;51.976;5.326;2023-04-08T17:34:21;25.38;;;23.50;;
45402;SDS011;47427;51.976;5.326;2023-04-08T17:37:45;25.70;;;23.70;;
45402;SDS011;47427;51.976;5.326;2023-04-08T17:41:08;25.10;;;23.05;;
45402;SDS011;47427;51.976;5.326;2023-04-08T17:44:31;24.35;;;22.60;;
45402;SDS011;47427;51.976;5.326;2023-04-08T17:47:55;24.85;;;22.55;;
45402;SDS011;47427;51.976;5.326;2023-04-08T17:51:19;23.80;;;21.90;;
45402;SDS011;47427;51.976;5.326;2023-04-08T17:54:43;25.13;;;23.00;;
45402;SDS011;47427;51.976;5.326;2023-04-08T17:58:05;25.77;;;23.70;;
45402;SDS011;47427;51.976;5.326;2023-04-08T18:01:27;27.17;;;24.83;;
45402;SDS011;47427;51.976;5.326;2023-04-08T18:04:50;27.00;;;25.00;;
45402;SDS011;47427;51.976;5.326;2023-04-08T18:08:13;26.95;;;24.83;;
45402;SDS011;47427;51.976;5.326;2023-04-08T18:11:34;27.55;;;25.45;;
45402;SDS011;47427;51.976;5.326;2023-04-08T18:14:57;27.67;;;25.35;;
45402;SDS011;47427;51.976;5.326;2023-04-08T18:18:23;30.58;;;27.98;;
45402;SDS011;47427;51.976;5.326;2023-04-08T18:21:44;30.38;;;27.73;;
45402;SDS011;47427;51.976;5.326;2023-04-08T18:25:07;34.38;;;31.00;;
45402;SDS011;47427;51.976;5.326;2023-04-08T18:28:29;31.95;;;29.15;;
45402;SDS011;47427;51.976;5.326;2023-04-08T18:31:52;31.25;;;27.95;;
45402;SDS011;47427;51.976;5.326;2023-04-08T18:35:15;31.70;;;28.80;;
45402;SDS011;47427;51.976;5.326;2023-04-08T18:38:36;31.52;;;28.58;;
45402;SDS011;47427;51.976;5.326;2023-04-08T18:42:00;30.08;;;27.27;;
45402;SDS011;47427;51.976;5.326;2023-04-08T18:45:24;30.25;;;27.35;;
45402;SDS011;47427;51.976;5.326;2023-04-08T18:48:46;30.17;;;27.50;;
45402;SDS011;47427;51.976;5.326;2023-04-08T18:52:10;36.97;;;28.00;;
45402;SDS011;47427;51.976;5.326;2023-04-08T18:55:32;30.10;;;27.58;;
45402;SDS011;47427;51.976;5.326;2023-04-08T18:58:59;31.23;;;28.52;;
45402;SDS011;47427;51.976;5.326;2023-04-08T19:02:22;33.78;;;30.90;;
45402;SDS011;47427;51.976;5.326;2023-04-08T19:05:43;31.08;;;28.48;;
45402;SDS011;47427;51.976;5.326;2023-04-08T19:09:07;35.65;;;32.55;;
45402;SDS011;47427;51.976;5.326;2023-04-08T19:12:30;36.25;;;33.10;;
45402;SDS011;47427;51.976;5.326;2023-04-08T19:15:53;35.65;;;32.72;;
45402;SDS011;47427;51.976;5.326;2023-04-08T19:19:16;34.50;;;31.45;;
45402;SDS011;47427;51.976;5.326;2023-04-08T19:22:37;32.92;;;30.00;;
45402;SDS011;47427;51.976;5.326;2023-04-08T19:26:04;36.65;;;33.53;;
45402;SDS011;47427;51.976;5.326;2023-04-08T19:29:27;35.53;;;32.60;;
45402;SDS011;47427;51.976;5.326;2023-04-08T19:32:50;38.05;;;34.65;;
45402;SDS011;47427;51.976;5.326;2023-04-08T19:36:13;37.55;;;34.38;;
45402;SDS011;47427;51.976;5.326;2023-04-08T19:39:35;33.40;;;30.30;;
45402;SDS011;47427;51.976;5.326;2023-04-08T19:42:57;33.13;;;30.23;;
45402;SDS011;47427;51.976;5.326;2023-04-08T19:46:20;36.90;;;33.60;;
45402;SDS011;47427;51.976;5.326;2023-04-08T19:49:42;37.42;;;34.05;;
45402;SDS011;47427;51.976;5.326;2023-04-08T19:53:04;37.95;;;34.78;;
45402;SDS011;47427;51.976;5.326;2023-04-08T19:56:27;34.90;;;31.52;;
45402;SDS011;47427;51.976;5.326;2023-04-08T19:59:53;34.70;;;31.48;;
45402;SDS011;47427;51.976;5.326;2023-04-08T20:03:16;37.88;;;34.67;;
45402;SDS011;47427;51.976;5.326;2023-04-08T20:06:37;36.47;;;33.28;;
45402;SDS011;47427;51.976;5.326;2023-04-08T20:10:01;38.40;;;35.03;;
45402;SDS011;47427;51.976;5.326;2023-04-08T20:13:23;38.92;;;35.42;;
45402;SDS011;47427;51.976;5.326;2023-04-08T20:16:45;34.95;;;31.75;;
45402;SDS011;47427;51.976;5.326;2023-04-08T20:20:09;35.20;;;31.90;;
45402;SDS011;47427;51.976;5.326;2023-04-08T20:23:51;38.50;;;35.10;;
45402;SDS011;47427;51.976;5.326;2023-04-08T20:27:14;38.78;;;35.38;;
45402;SDS011;47427;51.976;5.326;2023-04-08T20:30:37;38.10;;;34.88;;
45402;SDS011;47427;51.976;5.326;2023-04-08T20:33:59;44.47;;;40.55;;
45402;SDS011;47427;51.976;5.326;2023-04-08T20:37:23;40.70;;;36.67;;
45402;SDS011;47427;51.976;5.326;2023-04-08T20:40:45;43.05;;;38.90;;
45402;SDS011;47427;51.976;5.326;2023-04-08T20:44:08;45.92;;;41.53;;
45402;SDS011;47427;51.976;5.326;2023-04-08T20:47:31;46.50;;;42.33;;
45402;SDS011;47427;51.976;5.326;2023-04-08T20:50:54;46.90;;;42.33;;
45402;SDS011;47427;51.976;5.326;2023-04-08T20:54:17;48.63;;;43.65;;